createdAt,value
2023-03-13T00:01:35.488Z,8.98
2023-03-13T00:04:02.215Z,8.98
2023-03-13T00:06:35.090Z,9.00
2023-03-13T00:09:03.057Z,8.99
2023-03-13T00:11:30.006Z,8.98
2023-03-13T00:13:57.814Z,8.97
2023-03-13T00:16:24.705Z,8.97
2023-03-13T00:18:53.302Z,8.95
2023-03-13T00:21:22.599Z,8.95
2023-03-13T00:23:49.765Z,8.95
2023-03-13T00:26:19.191Z,8.93
2023-03-13T00:28:46.235Z,8.93
2023-03-13T00:31:16.179Z,8.91
2023-03-13T00:33:45.151Z,8.90
2023-03-13T00:36:17.246Z,8.90
2023-03-13T00:38:44.850Z,8.89
2023-03-13T00:41:17.534Z,8.85
2023-03-13T00:43:45.223Z,8.83
2023-03-13T00:46:13.228Z,8.82
2023-03-13T00:48:40.219Z,8.83
2023-03-13T00:51:08.008Z,8.82
2023-03-13T00:53:35.094Z,8.82
2023-03-13T00:56:06.186Z,8.84
2023-03-13T00:58:35.732Z,8.87
2023-03-13T01:01:20.781Z,8.84
2023-03-13T01:03:55.759Z,8.88
2023-03-13T01:06:24.907Z,8.89
2023-03-13T01:08:51.995Z,8.89
2023-03-13T01:11:21.672Z,8.92
2023-03-13T01:13:49.017Z,8.94
2023-03-13T01:16:18.320Z,8.94
2023-03-13T01:18:47.409Z,8.97
2023-03-13T01:21:15.379Z,8.99
2023-03-13T01:23:42.622Z,9.01
2023-03-13T01:26:10.036Z,8.99
2023-03-13T01:28:37.511Z,9.02
2023-03-13T01:31:28.411Z,9.03
2023-03-13T01:34:00.205Z,9.04
2023-03-13T01:36:27.557Z,9.07
2023-03-13T01:38:56.564Z,9.06
2023-03-13T01:41:24.734Z,9.08
2023-03-13T01:43:51.520Z,9.10
2023-03-13T01:46:21.538Z,9.13
2023-03-13T01:49:02.988Z,9.14
2023-03-13T01:51:40.395Z,9.14
2023-03-13T01:54:15.383Z,9.17
2023-03-13T01:56:53.360Z,9.19
2023-03-13T01:59:26.560Z,9.21
2023-03-13T02:01:57.382Z,9.23
2023-03-13T02:04:26.106Z,9.23
2023-03-13T02:06:57.266Z,9.24
2023-03-13T02:09:28.856Z,9.26
2023-03-13T02:12:14.925Z,9.30
2023-03-13T02:14:44.710Z,9.31
2023-03-13T02:17:11.359Z,9.36
2023-03-13T02:19:45.574Z,9.40
2023-03-13T02:22:30.544Z,9.43
2023-03-13T02:25:01.260Z,9.45
2023-03-13T02:27:28.120Z,9.47
2023-03-13T02:29:54.828Z,9.50
2023-03-13T02:32:22.885Z,9.53
2023-03-13T02:34:52.969Z,9.57
2023-03-13T02:37:21.852Z,9.60
2023-03-13T02:39:51.395Z,9.63
2023-03-13T02:42:20.417Z,9.67
2023-03-13T02:44:47.683Z,9.68
2023-03-13T02:47:22.489Z,9.70
2023-03-13T02:49:50.938Z,9.76
2023-03-13T02:52:30.183Z,9.80
2023-03-13T02:55:02.511Z,9.84
2023-03-13T02:57:29.384Z,9.91
2023-03-13T02:59:55.818Z,9.98
2023-03-13T03:02:22.765Z,10.04
2023-03-13T03:04:49.286Z,10.13
2023-03-13T03:07:16.013Z,10.24
2023-03-13T03:09:42.482Z,10.30
2023-03-13T03:12:09.495Z,10.32
2023-03-13T03:14:36.327Z,10.35
2023-03-13T03:17:02.810Z,10.41
2023-03-13T03:19:29.298Z,10.43
2023-03-13T03:21:55.857Z,10.47
2023-03-13T03:24:22.383Z,10.55
2023-03-13T03:26:48.856Z,10.55
2023-03-13T03:29:15.334Z,10.57
2023-03-13T03:31:41.823Z,10.61
2023-03-13T03:34:08.365Z,10.63
2023-03-13T03:36:34.803Z,10.64
2023-03-13T03:39:01.291Z,10.65
2023-03-13T03:41:27.841Z,10.65
2023-03-13T03:43:54.342Z,10.71
2023-03-13T03:46:21.045Z,10.72
2023-03-13T03:48:47.581Z,10.75
2023-03-13T03:51:14.043Z,10.78
2023-03-13T03:53:40.613Z,10.80
2023-03-13T03:56:07.766Z,10.80
2023-03-13T03:58:34.352Z,10.86
2023-03-13T04:01:00.806Z,10.85
2023-03-13T04:03:27.656Z,10.86
2023-03-13T04:05:54.362Z,10.90
2023-03-13T04:08:20.847Z,10.99
2023-03-13T04:10:47.547Z,10.98
2023-03-13T04:13:14.085Z,11.00
2023-03-13T04:15:41.369Z,11.03
2023-03-13T04:18:08.088Z,11.04
2023-03-13T04:20:35.238Z,11.05
2023-03-13T04:23:01.816Z,11.09
2023-03-13T04:25:28.314Z,11.12
2023-03-13T04:27:54.824Z,11.14
2023-03-13T04:30:21.361Z,11.12
2023-03-13T04:32:48.005Z,11.16
2023-03-13T04:35:14.534Z,11.23
2023-03-13T04:37:41.050Z,11.20
2023-03-13T04:40:08.774Z,11.18
2023-03-13T04:42:35.290Z,11.22
2023-03-13T04:45:01.759Z,11.26
2023-03-13T04:47:28.408Z,11.26
2023-03-13T04:49:54.937Z,11.31
2023-03-13T04:52:21.431Z,11.35
2023-03-13T04:54:47.900Z,11.40
2023-03-13T04:57:14.367Z,11.46
2023-03-13T04:59:40.854Z,11.45
2023-03-13T05:02:07.433Z,11.49
2023-03-13T05:04:33.931Z,11.50
2023-03-13T05:07:00.356Z,11.54
2023-03-13T05:09:26.930Z,11.54
2023-03-13T05:11:53.364Z,11.54
2023-03-13T05:14:19.850Z,11.56
2023-03-13T05:16:46.321Z,11.55
2023-03-13T05:19:12.755Z,11.57
2023-03-13T05:21:39.313Z,11.63
2023-03-13T05:24:06.034Z,11.70
2023-03-13T05:26:32.498Z,11.73
2023-03-13T05:28:59.003Z,11.79
2023-03-13T05:31:25.567Z,11.85
2023-03-13T05:33:53.079Z,11.91
2023-03-13T05:36:19.525Z,11.93
2023-03-13T05:38:47.170Z,11.96
2023-03-13T05:41:13.663Z,11.97
2023-03-13T05:43:40.147Z,11.99
2023-03-13T05:46:06.646Z,11.94
2023-03-13T05:48:33.154Z,12.06
2023-03-13T05:50:59.573Z,12.14
2023-03-13T05:53:26.077Z,12.12
2023-03-13T05:55:52.568Z,12.16
2023-03-13T05:58:19.045Z,12.15
2023-03-13T06:00:45.586Z,12.12
2023-03-13T06:03:14.309Z,12.07
2023-03-13T06:05:41.024Z,12.07
2023-03-13T06:08:07.543Z,12.05
2023-03-13T06:10:34.043Z,12.06
2023-03-13T06:13:13.661Z,12.08
2023-03-13T06:15:54.465Z,12.10
2023-03-13T06:18:21.123Z,12.07
2023-03-13T06:20:49.154Z,12.07
2023-03-13T06:23:16.215Z,12.08
2023-03-13T06:25:46.816Z,12.09
2023-03-13T06:28:13.258Z,12.10
2023-03-13T06:30:39.731Z,12.15
2023-03-13T06:33:06.330Z,12.16
2023-03-13T06:35:35.486Z,12.14
2023-03-13T06:38:05.293Z,12.16
2023-03-13T06:40:31.757Z,12.17
2023-03-13T06:42:58.606Z,12.21
2023-03-13T06:45:25.215Z,12.23
2023-03-13T06:47:52.267Z,12.23
2023-03-13T06:50:19.094Z,12.29
2023-03-13T06:52:48.022Z,12.30
2023-03-13T06:55:14.586Z,12.28
2023-03-13T06:57:41.292Z,12.30
2023-03-13T07:00:11.395Z,12.33
2023-03-13T07:02:37.944Z,12.36
2023-03-13T07:05:05.902Z,12.40
2023-03-13T07:07:33.573Z,12.35
2023-03-13T07:10:00.032Z,12.41
2023-03-13T07:12:26.618Z,12.43
2023-03-13T07:14:53.159Z,12.39
2023-03-13T07:17:19.651Z,12.38
2023-03-13T07:19:46.244Z,12.37
2023-03-13T07:22:12.912Z,12.31
2023-03-13T07:24:39.479Z,12.26
2023-03-13T07:27:07.951Z,12.22
2023-03-13T07:29:34.902Z,12.20
2023-03-13T07:32:01.569Z,12.17
2023-03-13T07:34:28.488Z,12.13
2023-03-13T07:36:54.960Z,12.10
2023-03-13T07:39:21.512Z,12.07
2023-03-13T07:41:47.967Z,12.01
2023-03-13T07:44:14.614Z,11.97
2023-03-13T07:46:41.087Z,11.97
2023-03-13T07:49:07.529Z,11.95
2023-03-13T07:51:43.571Z,12.00
2023-03-13T07:54:11.658Z,11.96
2023-03-13T07:56:38.439Z,11.96
2023-03-13T07:59:05.478Z,12.00
2023-03-13T08:01:32.039Z,12.05
2023-03-13T08:04:01.593Z,12.04
2023-03-13T08:06:32.672Z,12.11
2023-03-13T08:09:00.268Z,12.16
2023-03-13T08:11:28.679Z,12.18
2023-03-13T08:13:56.363Z,12.24
2023-03-13T08:16:26.441Z,12.24
2023-03-13T08:18:55.336Z,12.23
2023-03-13T08:21:25.126Z,12.26
2023-03-13T08:23:56.860Z,12.33
2023-03-13T08:26:25.553Z,12.36
2023-03-13T08:28:54.701Z,12.43
2023-03-13T08:31:24.007Z,12.48
2023-03-13T08:33:50.719Z,12.54
2023-03-13T08:36:19.703Z,12.53
2023-03-13T08:38:47.783Z,12.54
2023-03-13T08:41:16.580Z,12.65
2023-03-13T08:43:43.536Z,12.72
2023-03-13T08:46:10.076Z,12.72
2023-03-13T08:48:36.598Z,12.76
2023-03-13T08:51:07.831Z,12.81
2023-03-13T08:53:35.993Z,12.83
2023-03-13T08:56:02.797Z,12.88
2023-03-13T08:58:29.298Z,12.93
2023-03-13T09:01:11.511Z,12.96
2023-03-13T09:03:38.582Z,12.97
2023-03-13T09:06:05.838Z,12.99
2023-03-13T09:08:33.240Z,13.07
2023-03-13T09:11:02.315Z,13.08
2023-03-13T09:13:30.561Z,13.18
2023-03-13T09:16:02.684Z,13.27
2023-03-13T09:18:29.813Z,13.31
2023-03-13T09:20:56.388Z,13.35
2023-03-13T09:23:24.072Z,13.69
2023-03-13T09:25:53.946Z,13.96
2023-03-13T09:28:21.002Z,14.06
2023-03-13T09:30:49.460Z,14.11
2023-03-13T09:33:17.181Z,14.22
2023-03-13T09:35:47.073Z,14.31
2023-03-13T09:38:13.568Z,14.23
2023-03-13T09:40:56.541Z,14.10
2023-03-13T09:43:43.220Z,13.97
2023-03-13T09:46:17.666Z,14.07
2023-03-13T09:48:52.964Z,14.28
2023-03-13T09:51:24.767Z,14.36
2023-03-13T09:54:19.141Z,14.38
2023-03-13T09:56:53.260Z,14.31
2023-03-13T09:59:27.668Z,14.43
2023-03-13T10:01:57.343Z,14.58
2023-03-13T10:04:44.295Z,14.67
2023-03-13T10:07:11.590Z,14.67
2023-03-13T10:09:40.758Z,14.47
2023-03-13T10:12:29.033Z,14.39
2023-03-13T10:14:58.346Z,14.39
2023-03-13T10:17:37.775Z,14.48
2023-03-13T10:20:33.376Z,14.56
2023-03-13T10:23:30.311Z,14.69
2023-03-13T10:25:56.801Z,14.76
2023-03-13T10:28:23.707Z,14.99
2023-03-13T10:30:55.613Z,15.09
2023-03-13T10:33:27.874Z,15.10
2023-03-13T10:36:24.465Z,14.98
2023-03-13T10:38:54.586Z,15.28
2023-03-13T10:41:31.032Z,15.28
2023-03-13T10:44:04.845Z,15.23
2023-03-13T10:46:34.214Z,15.49
2023-03-13T10:49:04.131Z,15.56
2023-03-13T10:51:36.459Z,15.67
2023-03-13T10:54:15.600Z,15.83
2023-03-13T10:56:42.491Z,15.70
2023-03-13T10:59:26.041Z,15.74
2023-03-13T11:01:58.458Z,15.91
2023-03-13T11:04:34.421Z,16.01
2023-03-13T11:07:06.892Z,16.02
2023-03-13T11:09:33.812Z,15.84
2023-03-13T11:12:27.151Z,15.85
2023-03-13T11:14:58.749Z,15.94
2023-03-13T11:17:39.157Z,15.94
2023-03-13T11:20:23.269Z,16.06
2023-03-13T11:23:11.280Z,16.15
2023-03-13T11:26:08.707Z,16.17
2023-03-13T11:28:57.870Z,16.24
2023-03-13T11:31:27.945Z,16.25
2023-03-13T11:34:03.687Z,16.10
2023-03-13T11:36:51.766Z,16.17
2023-03-13T11:39:55.363Z,15.91
2023-03-13T11:42:43.773Z,15.74
2023-03-13T11:45:37.853Z,15.62
2023-03-13T11:48:46.547Z,15.63
2023-03-13T11:51:30.185Z,15.53
2023-03-13T11:54:29.553Z,15.90
2023-03-13T11:56:59.658Z,16.04
2023-03-13T11:59:53.524Z,16.03
2023-03-13T12:02:32.949Z,15.94
2023-03-13T12:05:09.190Z,15.78
2023-03-13T12:07:41.521Z,15.67
2023-03-13T12:10:19.612Z,15.66
2023-03-13T12:13:10.324Z,15.85
2023-03-13T12:15:58.672Z,16.18
2023-03-13T12:18:33.068Z,16.43
2023-03-13T12:21:38.378Z,16.58
2023-03-13T12:24:33.137Z,16.73
2023-03-13T12:27:16.002Z,16.83
2023-03-13T12:30:05.136Z,16.73
2023-03-13T12:32:43.153Z,16.69
2023-03-13T12:35:12.453Z,16.88
2023-03-13T12:38:16.515Z,17.17
2023-03-13T12:40:46.091Z,17.32
2023-03-13T12:44:00.650Z,17.03
2023-03-13T12:46:39.019Z,16.82
2023-03-13T12:49:20.220Z,16.79
2023-03-13T12:52:22.505Z,16.88
2023-03-13T12:55:23.773Z,16.98
2023-03-13T12:58:23.271Z,17.17
2023-03-13T13:00:51.769Z,17.09
2023-03-13T13:03:30.628Z,17.06
2023-03-13T13:06:05.865Z,17.04
2023-03-13T13:08:55.373Z,16.94
2023-03-13T13:11:34.229Z,16.67
2023-03-13T13:14:18.907Z,16.57
2023-03-13T13:16:50.706Z,16.43
2023-03-13T13:19:22.928Z,16.45
2023-03-13T13:22:37.235Z,16.65
2023-03-13T13:25:06.626Z,16.91
2023-03-13T13:27:33.038Z,17.23
2023-03-13T13:30:01.447Z,17.42
2023-03-13T13:32:34.470Z,17.09
2023-03-13T13:35:10.150Z,16.78
2023-03-13T13:37:36.659Z,16.62
2023-03-13T13:40:23.454Z,16.98
2023-03-13T13:42:52.994Z,17.07
2023-03-13T13:45:29.119Z,17.16
2023-03-13T13:48:39.844Z,17.19
2023-03-13T13:51:12.408Z,17.26
2023-03-13T13:53:59.843Z,17.28
2023-03-13T13:56:29.387Z,17.47
2023-03-13T13:59:20.469Z,17.46
2023-03-13T14:01:50.061Z,17.53
2023-03-13T14:04:33.648Z,17.65
2023-03-13T14:07:03.366Z,18.00
2023-03-13T14:09:37.324Z,18.30
2023-03-13T14:12:49.992Z,18.47
2023-03-13T14:15:22.220Z,18.57
2023-03-13T14:18:21.960Z,18.97
2023-03-13T14:21:13.969Z,19.03
2023-03-13T14:23:46.513Z,19.04
2023-03-13T14:26:21.807Z,18.89
2023-03-13T14:29:08.171Z,18.68
2023-03-13T14:31:37.370Z,18.67
2023-03-13T14:34:07.714Z,18.73
2023-03-13T14:36:48.723Z,18.91
2023-03-13T14:39:45.009Z,18.82
2023-03-13T14:42:14.712Z,18.64
2023-03-13T14:44:44.002Z,18.65
2023-03-13T14:47:16.759Z,18.84
2023-03-13T14:49:45.993Z,18.51
2023-03-13T14:52:27.318Z,18.39
2023-03-13T14:54:58.478Z,18.40
2023-03-13T14:57:27.499Z,18.40
2023-03-13T14:59:55.857Z,18.48
2023-03-13T15:02:22.409Z,18.23
2023-03-13T15:04:59.732Z,17.86
2023-03-13T15:07:52.757Z,17.34
2023-03-13T15:10:25.429Z,17.11
2023-03-13T15:12:52.492Z,17.03
2023-03-13T15:15:19.259Z,17.02
2023-03-13T15:17:45.844Z,17.43
2023-03-13T15:20:14.758Z,17.73
2023-03-13T15:22:44.877Z,17.77
2023-03-13T15:25:23.409Z,17.72
2023-03-13T15:27:50.516Z,17.44
2023-03-13T15:30:23.580Z,17.22
2023-03-13T15:32:50.522Z,17.32
2023-03-13T15:35:28.336Z,17.54
2023-03-13T15:37:59.444Z,18.03
2023-03-13T15:40:27.493Z,18.19
2023-03-13T15:42:55.502Z,18.07
2023-03-13T15:45:22.163Z,18.02
2023-03-13T15:47:48.954Z,18.16
2023-03-13T15:50:19.250Z,18.03
2023-03-13T15:52:46.309Z,17.48
2023-03-13T15:55:13.096Z,17.24
2023-03-13T15:57:46.084Z,17.18
2023-03-13T16:00:19.948Z,17.90
2023-03-13T16:02:46.557Z,18.32
2023-03-13T16:05:13.085Z,18.29
2023-03-13T16:07:39.586Z,18.73
2023-03-13T16:10:15.742Z,18.59
2023-03-13T16:12:42.204Z,18.59
2023-03-13T16:15:09.146Z,18.28
2023-03-13T16:17:35.636Z,18.39
2023-03-13T16:20:02.213Z,18.38
2023-03-13T16:22:28.738Z,18.17
2023-03-13T16:24:55.307Z,18.03
2023-03-13T16:27:22.719Z,17.51
2023-03-13T16:29:49.256Z,17.52
2023-03-13T16:32:18.515Z,17.77
2023-03-13T16:34:45.092Z,17.77
2023-03-13T16:37:17.376Z,17.74
2023-03-13T16:39:45.517Z,17.23
2023-03-13T16:42:12.360Z,16.96
2023-03-13T16:44:39.328Z,16.42
2023-03-13T16:47:19.407Z,16.86
2023-03-13T16:49:47.585Z,17.25
2023-03-13T16:52:16.040Z,17.32
2023-03-13T16:54:42.885Z,17.26
2023-03-13T16:57:15.343Z,17.15
2023-03-13T16:59:41.863Z,17.11
2023-03-13T17:02:16.645Z,16.94
2023-03-13T17:04:44.909Z,16.74
2023-03-13T17:07:18.453Z,16.55
2023-03-13T17:09:44.958Z,16.24
2023-03-13T17:12:11.417Z,16.05
2023-03-13T17:14:37.953Z,15.88
2023-03-13T17:17:04.912Z,15.71
2023-03-13T17:19:32.225Z,15.48
2023-03-13T17:21:58.905Z,15.38
2023-03-13T17:24:25.402Z,15.14
2023-03-13T17:26:51.921Z,14.95
2023-03-13T17:29:23.721Z,14.79
2023-03-13T17:31:50.369Z,14.65
2023-03-13T17:34:16.881Z,14.56
2023-03-13T17:36:44.569Z,14.44
2023-03-13T17:39:13.774Z,14.32
2023-03-13T17:41:40.319Z,14.22
2023-03-13T17:44:09.866Z,14.11
2023-03-13T17:46:43.198Z,14.03
2023-03-13T17:49:14.882Z,13.90
2023-03-13T17:51:41.891Z,13.77
2023-03-13T17:54:09.850Z,13.70
2023-03-13T17:56:39.162Z,13.65
2023-03-13T17:59:11.596Z,13.57
2023-03-13T18:01:38.609Z,13.57
2023-03-13T18:04:05.517Z,13.47
2023-03-13T18:06:39.055Z,13.39
2023-03-13T18:09:08.680Z,13.32
2023-03-13T18:11:37.548Z,13.24
2023-03-13T18:14:05.407Z,13.17
2023-03-13T18:16:40.530Z,13.15
2023-03-13T18:19:12.781Z,13.16
2023-03-13T18:21:39.278Z,13.14
2023-03-13T18:24:06.044Z,13.14
2023-03-13T18:26:35.047Z,13.17
2023-03-13T18:29:03.249Z,13.17
2023-03-13T18:31:35.420Z,13.17
2023-03-13T18:34:04.066Z,13.11
2023-03-13T18:36:31.256Z,12.98
2023-03-13T18:38:57.930Z,12.86
2023-03-13T18:41:24.727Z,12.75
2023-03-13T18:43:51.630Z,12.68
2023-03-13T18:46:31.294Z,12.61
2023-03-13T18:48:58.331Z,12.56
2023-03-13T18:51:26.103Z,12.50
2023-03-13T18:53:54.502Z,12.44
2023-03-13T18:56:25.446Z,12.34
2023-03-13T18:58:53.666Z,12.26
2023-03-13T19:01:22.525Z,12.16
2023-03-13T19:03:49.618Z,12.06
2023-03-13T19:06:18.914Z,11.99
2023-03-13T19:08:46.756Z,11.90
2023-03-13T19:11:14.941Z,11.89
2023-03-13T19:13:42.056Z,11.87
2023-03-13T19:16:23.862Z,11.90
2023-03-13T19:18:51.783Z,11.93
2023-03-13T19:21:26.600Z,11.96
2023-03-13T19:23:53.954Z,11.96
2023-03-13T19:26:32.023Z,11.98
2023-03-13T19:28:59.172Z,11.94
2023-03-13T19:31:26.189Z,11.96
2023-03-13T19:33:55.634Z,11.99
2023-03-13T19:36:24.065Z,12.03
2023-03-13T19:38:51.067Z,11.94
2023-03-13T19:41:17.728Z,11.96
2023-03-13T19:43:45.571Z,11.85
2023-03-13T19:46:23.522Z,11.73
2023-03-13T19:48:53.687Z,11.67
2023-03-13T19:51:20.250Z,11.58
2023-03-13T19:53:47.045Z,11.64
2023-03-13T19:56:25.218Z,11.58
2023-03-13T19:58:56.661Z,11.63
2023-03-13T20:01:23.320Z,11.69
2023-03-13T20:03:49.868Z,11.67
2023-03-13T20:06:25.689Z,11.57
2023-03-13T20:09:00.661Z,11.50
2023-03-13T20:11:28.189Z,11.41
2023-03-13T20:13:55.216Z,11.39
2023-03-13T20:16:22.610Z,11.27
2023-03-13T20:18:50.118Z,11.26
2023-03-13T20:21:17.089Z,11.37
2023-03-13T20:23:48.056Z,11.33
2023-03-13T20:26:17.469Z,11.41
2023-03-13T20:28:46.980Z,11.50
2023-03-13T20:31:15.107Z,11.55
2023-03-13T20:33:41.702Z,11.61
2023-03-13T20:36:14.135Z,11.56
2023-03-13T20:38:41.468Z,11.42
2023-03-13T20:41:08.726Z,11.37
2023-03-13T20:43:36.265Z,11.36
2023-03-13T20:46:03.794Z,11.41
2023-03-13T20:48:30.545Z,11.40
2023-03-13T20:50:59.473Z,11.40
2023-03-13T20:53:27.374Z,11.41
2023-03-13T20:55:57.339Z,11.43
2023-03-13T20:58:24.136Z,11.48
2023-03-13T21:00:50.593Z,11.45
2023-03-13T21:03:19.993Z,11.51
2023-03-13T21:05:46.523Z,11.55
2023-03-13T21:08:13.028Z,11.57
2023-03-13T21:10:41.075Z,11.52
2023-03-13T21:13:08.489Z,11.46
2023-03-13T21:15:35.889Z,11.45
2023-03-13T21:18:02.984Z,11.49
2023-03-13T21:20:30.565Z,11.53
2023-03-13T21:22:57.171Z,11.54
2023-03-13T21:25:24.038Z,11.54
2023-03-13T21:27:50.518Z,11.60
2023-03-13T21:30:19.903Z,11.66
2023-03-13T21:32:47.226Z,11.72
2023-03-13T21:35:14.715Z,11.70
2023-03-13T21:37:41.365Z,11.71
2023-03-13T21:40:09.147Z,11.71
2023-03-13T21:42:36.149Z,11.73
2023-03-13T21:45:04.569Z,11.72
2023-03-13T21:47:31.709Z,11.75
2023-03-13T21:50:00.602Z,11.76
2023-03-13T21:52:28.028Z,11.77
2023-03-13T21:54:54.654Z,11.76
2023-03-13T21:57:21.158Z,11.76
2023-03-13T21:59:47.616Z,11.76
2023-03-13T22:02:14.415Z,11.74
2023-03-13T22:04:40.989Z,11.72
2023-03-13T22:07:07.611Z,11.78
2023-03-13T22:09:34.179Z,11.83
2023-03-13T22:12:00.715Z,11.86
2023-03-13T22:14:28.022Z,11.89
2023-03-13T22:16:54.755Z,11.90
2023-03-13T22:19:21.227Z,11.89
2023-03-13T22:21:47.677Z,11.91
2023-03-13T22:24:14.126Z,11.85
2023-03-13T22:26:40.567Z,11.84
2023-03-13T22:29:07.054Z,11.81
2023-03-13T22:31:33.651Z,11.73
2023-03-13T22:34:00.126Z,11.76
2023-03-13T22:36:26.704Z,11.79
2023-03-13T22:38:53.227Z,11.74
2023-03-13T22:41:19.950Z,11.76
2023-03-13T22:43:46.437Z,11.82
2023-03-13T22:46:13.822Z,11.80
2023-03-13T22:48:40.531Z,11.87
2023-03-13T22:51:10.672Z,11.87
2023-03-13T22:53:39.264Z,11.86
2023-03-13T22:56:06.876Z,11.86
2023-03-13T22:58:34.357Z,11.88
2023-03-13T23:01:00.933Z,11.89
2023-03-13T23:03:27.446Z,11.91
2023-03-13T23:05:53.913Z,11.91
2023-03-13T23:08:20.433Z,11.93
2023-03-13T23:10:47.519Z,11.90
2023-03-13T23:13:14.812Z,11.91
2023-03-13T23:15:55.286Z,11.95
2023-03-13T23:18:26.522Z,11.97
2023-03-13T23:20:54.000Z,11.98
2023-03-13T23:23:20.598Z,11.99
2023-03-13T23:25:47.089Z,12.00
2023-03-13T23:28:13.666Z,12.01
2023-03-13T23:30:40.172Z,12.06
2023-03-13T23:33:06.691Z,12.11
2023-03-13T23:35:37.312Z,12.09
2023-03-13T23:38:04.057Z,12.04
2023-03-13T23:40:30.796Z,12.02
2023-03-13T23:42:57.262Z,11.96
2023-03-13T23:45:23.774Z,11.95
2023-03-13T23:47:52.861Z,11.96
2023-03-13T23:50:19.615Z,11.96
2023-03-13T23:52:46.160Z,11.89
2023-03-13T23:55:12.888Z,11.81
2023-03-13T23:57:39.500Z,11.75
